createdAt,value
2022-12-08T00:00:22.001Z,2.27
2022-12-08T00:02:49.659Z,2.60
2022-12-08T00:05:34.628Z,3.13
2022-12-08T00:08:20.267Z,2.17
2022-12-08T00:10:49.373Z,2.37
2022-12-08T00:13:18.681Z,2.87
2022-12-08T00:15:46.103Z,3.13
2022-12-08T00:18:13.857Z,2.40
2022-12-08T00:20:41.300Z,2.37
2022-12-08T00:23:08.746Z,2.70
2022-12-08T00:25:36.868Z,2.40
2022-12-08T00:28:04.411Z,2.87
2022-12-08T00:30:33.187Z,2.20
2022-12-08T00:33:00.654Z,3.20
2022-12-08T00:35:28.095Z,2.53
2022-12-08T00:38:00.573Z,2.50
2022-12-08T00:40:28.899Z,2.73
2022-12-08T00:42:56.775Z,2.90
2022-12-08T00:45:24.242Z,2.83
2022-12-08T00:47:53.111Z,2.87
2022-12-08T00:50:20.568Z,2.60
2022-12-08T00:52:48.027Z,3.23
2022-12-08T00:55:15.535Z,2.97
2022-12-08T00:57:42.988Z,3.17
2022-12-08T01:00:10.884Z,2.73
2022-12-08T01:02:38.355Z,2.83
2022-12-08T01:05:07.847Z,2.63
2022-12-08T01:07:35.450Z,3.30
2022-12-08T01:10:03.946Z,3.27
2022-12-08T01:12:31.570Z,3.27
2022-12-08T01:15:02.299Z,3.07
2022-12-08T01:17:30.772Z,3.10
2022-12-08T01:19:58.707Z,3.27
2022-12-08T01:22:27.634Z,3.80
2022-12-08T01:24:55.065Z,3.27
2022-12-08T01:27:22.694Z,3.60
2022-12-08T01:29:50.150Z,3.77
2022-12-08T01:32:17.619Z,3.17
2022-12-08T01:34:45.135Z,3.17
2022-12-08T01:37:13.327Z,3.80
2022-12-08T01:39:42.206Z,3.40
2022-12-08T01:42:15.439Z,3.73
2022-12-08T01:45:04.058Z,4.00
2022-12-08T01:47:36.020Z,3.70
2022-12-08T01:50:04.396Z,3.67
2022-12-08T01:52:33.938Z,3.77
2022-12-08T01:55:03.848Z,3.70
2022-12-08T01:57:34.203Z,4.10
2022-12-08T02:00:03.082Z,3.63
2022-12-08T02:02:37.004Z,3.87
2022-12-08T02:05:04.734Z,4.07
2022-12-08T02:07:32.614Z,3.90
2022-12-08T02:10:00.352Z,3.93
2022-12-08T02:12:29.180Z,3.97
2022-12-08T02:15:00.549Z,4.70
2022-12-08T02:17:37.870Z,3.90
2022-12-08T02:20:35.559Z,4.03
2022-12-08T02:23:08.265Z,4.20
2022-12-08T02:25:40.666Z,3.53
2022-12-08T02:28:22.928Z,3.70
2022-12-08T02:30:54.971Z,3.87
2022-12-08T02:33:40.429Z,3.83
2022-12-08T02:36:14.120Z,4.03
2022-12-08T02:38:46.819Z,3.70
2022-12-08T02:41:20.127Z,4.20
2022-12-08T02:43:48.944Z,3.63
2022-12-08T02:46:19.540Z,3.73
2022-12-08T02:48:47.681Z,3.53
2022-12-08T02:51:16.474Z,3.70
2022-12-08T02:53:44.365Z,4.37
2022-12-08T02:56:15.940Z,3.97
2022-12-08T02:58:47.762Z,3.90
2022-12-08T03:01:29.550Z,3.77
2022-12-08T03:04:00.917Z,3.57
2022-12-08T03:06:33.466Z,3.80
2022-12-08T03:09:04.008Z,3.70
2022-12-08T03:11:35.138Z,3.97
2022-12-08T03:14:04.509Z,3.20
2022-12-08T03:16:34.017Z,3.60
2022-12-08T03:19:03.483Z,3.50
2022-12-08T03:21:33.447Z,3.53
2022-12-08T03:24:03.080Z,3.47
2022-12-08T03:26:31.925Z,3.70
2022-12-08T03:28:59.705Z,4.00
2022-12-08T03:31:28.921Z,3.77
2022-12-08T03:33:57.529Z,3.73
2022-12-08T03:36:25.441Z,3.70
2022-12-08T03:38:54.695Z,3.47
2022-12-08T03:41:22.794Z,3.57
2022-12-08T03:43:51.098Z,3.43
2022-12-08T03:48:47.098Z,3.93
2022-12-08T03:51:14.855Z,3.33
2022-12-08T03:53:42.332Z,3.90
2022-12-08T03:56:16.094Z,3.93
2022-12-08T03:58:43.980Z,3.90
2022-12-08T04:01:11.626Z,3.50
2022-12-08T04:03:39.108Z,3.87
2022-12-08T04:06:06.765Z,4.07
2022-12-08T04:08:34.480Z,4.07
2022-12-08T04:11:01.928Z,4.47
2022-12-08T04:13:30.882Z,3.70
2022-12-08T04:15:58.415Z,2.90
2022-12-08T04:18:25.871Z,3.90
2022-12-08T04:20:53.684Z,3.90
2022-12-08T04:23:21.143Z,3.93
2022-12-08T04:25:48.603Z,3.93
2022-12-08T04:28:16.470Z,3.73
2022-12-08T04:30:45.415Z,3.73
2022-12-08T04:33:12.864Z,4.33
2022-12-08T04:35:40.285Z,4.50
2022-12-08T04:38:07.727Z,4.43
2022-12-08T04:40:35.188Z,5.37
2022-12-08T04:43:02.658Z,5.20
2022-12-08T04:45:30.099Z,4.57
2022-12-08T04:47:58.920Z,4.80
2022-12-08T04:50:26.449Z,5.23
2022-12-08T04:52:53.883Z,5.87
2022-12-08T04:55:21.310Z,4.77
2022-12-08T04:57:49.079Z,3.80
2022-12-08T05:00:17.140Z,3.77
2022-12-08T05:02:44.635Z,3.80
2022-12-08T05:05:13.598Z,3.80
2022-12-08T05:07:41.086Z,4.03
2022-12-08T05:10:09.203Z,4.07
2022-12-08T05:12:36.643Z,3.90
2022-12-08T05:15:04.243Z,3.80
2022-12-08T05:17:31.674Z,4.10
2022-12-08T05:19:59.144Z,4.37
2022-12-08T05:22:28.031Z,3.60
2022-12-08T05:24:55.483Z,3.83
2022-12-08T05:27:22.925Z,4.30
2022-12-08T05:29:50.392Z,4.40
2022-12-08T05:32:17.891Z,4.07
2022-12-08T05:34:45.571Z,4.27
2022-12-08T05:37:13.068Z,4.07
2022-12-08T05:39:41.848Z,4.03
2022-12-08T05:42:09.309Z,3.90
2022-12-08T05:44:36.783Z,4.10
2022-12-08T05:47:04.331Z,4.47
2022-12-08T05:49:31.910Z,3.60
2022-12-08T05:51:59.344Z,3.90
2022-12-08T05:54:26.794Z,3.73
2022-12-08T05:56:55.584Z,2.87
2022-12-08T05:59:23.049Z,2.63
2022-12-08T06:01:50.497Z,3.33
2022-12-08T06:04:18.000Z,3.27
2022-12-08T06:06:45.437Z,3.53
2022-12-08T06:09:13.291Z,3.30
2022-12-08T06:11:40.715Z,3.50
2022-12-08T06:14:12.255Z,3.33
2022-12-08T06:16:39.980Z,3.60
2022-12-08T06:19:07.613Z,3.23
2022-12-08T06:21:37.240Z,3.43
2022-12-08T06:24:04.773Z,3.60
2022-12-08T06:26:32.246Z,3.17
2022-12-08T06:29:00.685Z,3.60
2022-12-08T06:31:29.557Z,3.90
2022-12-08T06:33:57.171Z,3.77
2022-12-08T06:36:25.810Z,3.63
2022-12-08T06:38:53.521Z,3.43
2022-12-08T06:41:20.995Z,3.83
2022-12-08T06:43:48.858Z,4.13
2022-12-08T06:46:17.966Z,3.90
2022-12-08T06:48:46.828Z,3.40
2022-12-08T06:51:15.900Z,3.87
2022-12-08T06:53:44.259Z,4.23
2022-12-08T06:56:12.067Z,4.20
2022-12-08T06:58:41.057Z,3.73
2022-12-08T07:01:09.376Z,4.03
2022-12-08T07:03:37.036Z,4.07
2022-12-08T07:06:06.243Z,3.47
2022-12-08T07:08:33.852Z,4.57
2022-12-08T07:11:07.086Z,3.77
2022-12-08T07:13:34.542Z,3.60
2022-12-08T07:16:02.032Z,4.03
2022-12-08T07:18:29.508Z,3.57
2022-12-08T07:20:56.987Z,4.80
2022-12-08T07:23:28.135Z,4.80
2022-12-08T07:25:55.675Z,4.37
2022-12-08T07:28:23.296Z,4.30
2022-12-08T07:30:50.781Z,4.10
2022-12-08T07:33:18.627Z,4.10
2022-12-08T07:35:49.324Z,4.70
2022-12-08T07:38:17.362Z,4.63
2022-12-08T07:40:46.182Z,4.33
2022-12-08T07:43:13.622Z,4.83
2022-12-08T07:45:41.887Z,4.73
2022-12-08T07:48:09.995Z,4.77
2022-12-08T07:50:37.447Z,5.07
2022-12-08T07:53:04.997Z,4.30
2022-12-08T07:55:32.831Z,4.83
2022-12-08T07:58:01.669Z,4.33
2022-12-08T08:00:29.227Z,4.90
2022-12-08T08:02:56.900Z,4.50
2022-12-08T08:05:24.431Z,4.50
2022-12-08T08:07:51.930Z,4.80
2022-12-08T08:10:19.377Z,4.60
2022-12-08T08:12:47.562Z,4.17
2022-12-08T08:15:17.378Z,4.93
2022-12-08T08:17:44.816Z,4.53
2022-12-08T08:20:12.838Z,4.30
2022-12-08T08:22:40.296Z,4.30
2022-12-08T08:25:08.507Z,4.40
2022-12-08T08:27:37.165Z,4.53
2022-12-08T08:30:05.098Z,4.40
2022-12-08T08:32:34.992Z,4.77
2022-12-08T08:35:02.541Z,5.00
2022-12-08T08:37:30.082Z,4.53
2022-12-08T08:39:57.576Z,4.83
2022-12-08T08:42:25.014Z,4.43
2022-12-08T08:44:52.543Z,4.80
2022-12-08T08:47:19.985Z,4.43
2022-12-08T08:49:49.074Z,6.70
2022-12-08T08:52:16.658Z,7.30
2022-12-08T08:54:44.127Z,8.90
2022-12-08T08:57:11.662Z,8.60
2022-12-08T08:59:39.113Z,8.67
2022-12-08T09:02:06.581Z,8.97
2022-12-08T09:04:34.180Z,7.53
2022-12-08T09:07:03.078Z,7.57
2022-12-08T09:09:31.161Z,10.77
2022-12-08T09:11:58.620Z,8.73
2022-12-08T09:14:26.087Z,7.33
2022-12-08T09:16:53.572Z,5.90
2022-12-08T09:19:21.035Z,6.60
2022-12-08T09:21:48.505Z,9.13
2022-12-08T09:24:21.815Z,7.40
2022-12-08T09:26:49.426Z,7.83
2022-12-08T09:29:17.588Z,7.67
2022-12-08T09:31:45.133Z,6.77
2022-12-08T09:34:13.332Z,7.00
2022-12-08T09:36:41.061Z,6.50
2022-12-08T09:39:08.659Z,5.83
2022-12-08T09:41:44.792Z,5.27
2022-12-08T09:44:33.691Z,4.50
2022-12-08T09:47:02.280Z,4.50
2022-12-08T09:49:34.989Z,4.67
2022-12-08T09:52:03.259Z,4.73
2022-12-08T09:54:32.938Z,5.07
2022-12-08T09:57:04.285Z,4.93
2022-12-08T09:59:32.781Z,4.33
2022-12-08T10:02:00.999Z,4.43
2022-12-08T10:04:32.274Z,3.80
2022-12-08T10:07:04.992Z,4.33
2022-12-08T10:09:36.913Z,3.97
2022-12-08T10:12:08.985Z,4.93
2022-12-08T10:14:40.732Z,5.03
2022-12-08T10:17:12.514Z,4.50
2022-12-08T10:19:41.390Z,4.30
2022-12-08T10:22:13.314Z,4.10
2022-12-08T10:24:42.944Z,3.80
2022-12-08T10:27:13.112Z,4.37
2022-12-08T10:29:41.021Z,4.30
2022-12-08T10:32:14.777Z,4.13
2022-12-08T10:34:57.122Z,3.83
2022-12-08T10:37:24.568Z,3.77
2022-12-08T10:39:59.556Z,3.67
2022-12-08T10:42:33.673Z,3.93
2022-12-08T10:45:03.245Z,3.80
2022-12-08T10:47:31.531Z,4.30
2022-12-08T10:50:07.922Z,3.77
2022-12-08T10:52:38.964Z,3.60
2022-12-08T10:55:14.058Z,3.07
2022-12-08T10:57:42.843Z,3.60
2022-12-08T11:00:14.586Z,3.37
2022-12-08T11:02:53.840Z,4.03
2022-12-08T11:05:23.380Z,3.33
2022-12-08T11:07:52.552Z,3.60
2022-12-08T11:10:20.707Z,3.77
2022-12-08T11:12:50.421Z,3.90
2022-12-08T11:15:18.683Z,3.37
2022-12-08T11:17:59.040Z,3.97
2022-12-08T11:20:26.504Z,3.60
2022-12-08T11:22:57.538Z,3.20
2022-12-08T11:25:25.754Z,3.63
2022-12-08T11:27:57.303Z,3.33
2022-12-08T11:30:26.409Z,3.83
2022-12-08T11:32:55.868Z,2.80
2022-12-08T11:35:26.557Z,2.93
2022-12-08T11:38:07.883Z,3.23
2022-12-08T11:40:43.831Z,2.90
2022-12-08T11:43:17.507Z,3.30
2022-12-08T11:45:45.286Z,2.80
2022-12-08T11:48:15.388Z,3.10
2022-12-08T11:50:44.889Z,2.90
2022-12-08T11:53:19.234Z,2.87
2022-12-08T11:55:51.383Z,2.97
2022-12-08T11:58:22.363Z,2.87
2022-12-08T12:00:50.124Z,2.80
2022-12-08T12:03:21.636Z,3.03
2022-12-08T12:06:37.645Z,3.23
2022-12-08T12:08:53.569Z,2.77
2022-12-08T12:11:38.272Z,1.90
2022-12-08T12:14:14.086Z,2.70
2022-12-08T12:16:56.013Z,2.30
2022-12-08T12:19:24.038Z,2.47
2022-12-08T12:21:52.919Z,2.73
2022-12-08T12:24:26.065Z,2.67
2022-12-08T12:26:58.424Z,1.83
2022-12-08T12:29:28.985Z,3.20
2022-12-08T12:31:58.337Z,2.43
2022-12-08T12:34:27.089Z,3.33
2022-12-08T12:36:55.799Z,2.83
2022-12-08T12:39:25.705Z,2.93
2022-12-08T12:41:54.793Z,2.60
2022-12-08T12:44:25.064Z,3.50
2022-12-08T12:46:58.300Z,3.20
2022-12-08T12:49:45.889Z,2.97
2022-12-08T12:52:31.724Z,3.10
2022-12-08T12:55:18.150Z,3.20
2022-12-08T12:57:51.339Z,2.80
2022-12-08T13:00:19.786Z,3.33
2022-12-08T13:02:49.752Z,3.00
2022-12-08T13:05:18.267Z,2.93
2022-12-08T13:07:47.327Z,2.97
2022-12-08T13:10:18.682Z,3.13
2022-12-08T13:12:47.025Z,2.83
2022-12-08T13:15:19.602Z,2.70
2022-12-08T13:17:49.511Z,3.23
2022-12-08T13:20:20.232Z,2.57
2022-12-08T13:23:01.440Z,3.00
2022-12-08T13:25:59.220Z,2.77
2022-12-08T13:28:28.501Z,2.70
2022-12-08T13:30:56.813Z,3.20
2022-12-08T13:33:27.773Z,2.97
2022-12-08T13:36:01.609Z,3.00
2022-12-08T13:38:30.913Z,2.63
2022-12-08T13:40:58.462Z,3.67
2022-12-08T13:43:41.330Z,4.23
2022-12-08T13:55:35.483Z,3.33
2022-12-08T13:57:32.527Z,2.77
2022-12-08T14:00:00.910Z,2.83
2022-12-08T14:02:31.271Z,2.53
2022-12-08T14:07:49.198Z,2.87
2022-12-08T14:10:18.433Z,4.47
2022-12-08T14:12:47.668Z,5.83
2022-12-08T14:15:16.712Z,5.97
2022-12-08T14:17:51.481Z,5.47
2022-12-08T14:20:23.387Z,14.23
2022-12-08T14:22:52.268Z,10.43
2022-12-08T14:25:20.190Z,4.43
2022-12-08T14:27:47.891Z,4.20
2022-12-08T14:30:19.453Z,4.73
2022-12-08T14:32:48.840Z,6.37
2022-12-08T14:35:23.138Z,6.20
2022-12-08T14:37:54.660Z,5.17
2022-12-08T14:40:24.142Z,4.70
2022-12-08T14:42:52.811Z,3.73
2022-12-08T14:45:20.311Z,3.60
2022-12-08T14:47:48.527Z,3.37
2022-12-08T14:50:40.556Z,3.73
2022-12-08T14:53:12.733Z,3.40
2022-12-08T14:55:40.370Z,3.03
2022-12-08T14:58:10.694Z,3.23
2022-12-08T15:00:45.311Z,3.30
2022-12-08T15:03:13.786Z,3.00
2022-12-08T15:05:43.192Z,3.27
2022-12-08T15:08:12.857Z,3.50
2022-12-08T15:10:40.481Z,3.40
2022-12-08T15:13:20.682Z,3.30
2022-12-08T15:15:49.566Z,7.53
2022-12-08T15:18:19.117Z,4.67
2022-12-08T15:20:49.742Z,4.47
2022-12-08T15:23:25.913Z,3.47
2022-12-08T15:25:54.006Z,4.83
2022-12-08T15:28:26.701Z,3.80
2022-12-08T15:30:57.549Z,3.13
2022-12-08T15:33:25.045Z,2.77
2022-12-08T15:35:53.934Z,3.40
2022-12-08T15:38:23.206Z,3.60
2022-12-08T15:40:50.797Z,3.10
2022-12-08T15:43:18.490Z,5.00
2022-12-08T15:45:58.035Z,7.30
2022-12-08T15:48:27.866Z,7.00
2022-12-08T15:50:57.020Z,5.70
2022-12-08T15:53:24.468Z,5.80
2022-12-08T15:58:56.533Z,3.00
2022-12-08T16:01:25.583Z,3.13
2022-12-08T16:09:32.049Z,3.20
2022-12-08T16:12:17.619Z,2.93
2022-12-08T16:17:33.119Z,3.77
2022-12-08T16:20:00.967Z,3.40
2022-12-08T16:25:20.619Z,3.40
2022-12-08T16:30:37.556Z,3.17
2022-12-08T16:33:05.411Z,3.33
2022-12-08T16:35:32.865Z,2.77
2022-12-08T16:38:01.734Z,2.77
2022-12-08T16:40:29.214Z,2.60
2022-12-08T16:42:55.687Z,3.10
2022-12-08T16:45:24.068Z,2.83
2022-12-08T16:47:52.481Z,3.90
2022-12-08T16:50:20.976Z,2.83
2022-12-08T16:52:48.792Z,2.83
2022-12-08T16:55:18.691Z,3.37
2022-12-08T16:57:46.935Z,3.80
2022-12-08T17:00:16.019Z,3.27
2022-12-08T17:02:43.596Z,3.00
2022-12-08T17:05:13.614Z,3.63
2022-12-08T17:07:41.326Z,3.57
2022-12-08T17:10:10.132Z,3.40
2022-12-08T17:12:39.016Z,5.43
2022-12-08T17:15:08.677Z,5.00
2022-12-08T17:17:36.243Z,5.43
2022-12-08T17:20:05.496Z,6.20
2022-12-08T17:22:33.741Z,6.23
2022-12-08T17:25:01.557Z,4.17
2022-12-08T17:27:29.036Z,4.40
2022-12-08T17:29:57.938Z,3.77
2022-12-08T17:32:25.424Z,4.53
2022-12-08T17:34:52.948Z,4.10
2022-12-08T17:37:20.705Z,4.40
2022-12-08T17:39:48.186Z,4.20
2022-12-08T17:42:15.701Z,3.23
2022-12-08T17:44:43.160Z,3.80
2022-12-08T17:47:11.922Z,3.83
2022-12-08T17:49:39.408Z,3.23
2022-12-08T17:52:07.686Z,4.00
2022-12-08T17:54:36.378Z,3.07
2022-12-08T17:57:03.844Z,3.67
2022-12-08T17:59:31.524Z,3.23
2022-12-08T18:01:59.572Z,3.50
2022-12-08T18:04:28.774Z,3.27
2022-12-08T18:06:58.206Z,3.60
2022-12-08T18:09:25.721Z,3.20
2022-12-08T18:11:53.182Z,4.23
2022-12-08T18:14:20.649Z,3.90
2022-12-08T18:16:48.230Z,3.97
2022-12-08T18:19:15.990Z,3.37
2022-12-08T18:21:44.850Z,3.60
2022-12-08T18:24:17.496Z,4.53
2022-12-08T18:26:44.956Z,5.80
2022-12-08T18:29:12.420Z,3.83
2022-12-08T18:31:39.872Z,4.70
2022-12-08T18:34:07.611Z,3.40
2022-12-08T18:36:35.064Z,3.33
2022-12-08T18:39:10.240Z,3.90
2022-12-08T18:41:38.315Z,3.87
2022-12-08T18:44:05.769Z,3.20
2022-12-08T18:46:33.263Z,3.10
2022-12-08T18:49:00.848Z,3.17
2022-12-08T18:51:28.582Z,3.43
2022-12-08T18:53:56.068Z,3.60
2022-12-08T18:56:26.195Z,4.30
2022-12-08T18:58:59.832Z,4.17
2022-12-08T19:01:30.380Z,4.33
2022-12-08T19:04:26.659Z,3.50
2022-12-08T19:06:46.178Z,3.20
2022-12-08T19:09:15.711Z,3.47
2022-12-08T19:11:44.769Z,3.30
2022-12-08T19:14:12.359Z,3.23
2022-12-08T19:16:39.861Z,3.63
2022-12-08T19:19:07.491Z,3.43
2022-12-08T19:21:35.018Z,3.30
2022-12-08T19:24:02.451Z,3.10
2022-12-08T19:26:29.908Z,3.30
2022-12-08T19:28:58.770Z,3.27
2022-12-08T19:31:26.235Z,3.43
2022-12-08T19:33:53.757Z,5.97
2022-12-08T19:36:22.160Z,5.57
2022-12-08T19:39:07.325Z,3.93
2022-12-08T19:41:53.885Z,3.73
2022-12-08T19:44:42.416Z,3.63
2022-12-08T19:47:10.247Z,4.00
2022-12-08T19:49:37.807Z,3.70
2022-12-08T19:52:05.681Z,3.17
2022-12-08T19:54:33.185Z,3.43
2022-12-08T19:57:00.729Z,3.73
2022-12-08T19:59:30.234Z,3.83
2022-12-08T20:01:58.412Z,4.13
2022-12-08T20:04:26.855Z,4.83
2022-12-08T20:06:55.066Z,3.77
2022-12-08T20:09:22.908Z,3.50
2022-12-08T20:11:50.841Z,3.83
2022-12-08T20:14:18.700Z,3.97
2022-12-08T20:16:47.576Z,2.53
2022-12-08T20:19:15.145Z,2.97
2022-12-08T20:21:42.614Z,2.67
2022-12-08T20:24:10.111Z,3.23
2022-12-08T20:26:37.649Z,3.27
2022-12-08T20:29:05.097Z,3.60
2022-12-08T20:31:33.415Z,3.33
2022-12-08T20:34:02.571Z,3.30
2022-12-08T20:36:30.090Z,3.53
2022-12-08T20:38:57.787Z,3.03
2022-12-08T20:41:25.352Z,3.60
2022-12-08T20:43:53.056Z,3.60
2022-12-08T20:46:21.327Z,3.47
2022-12-08T20:48:48.970Z,3.63
2022-12-08T20:51:19.424Z,3.10
2022-12-08T20:53:48.177Z,3.50
2022-12-08T20:56:16.396Z,3.50
2022-12-08T20:58:44.314Z,3.70
2022-12-08T21:01:12.428Z,4.10
2022-12-08T21:03:40.861Z,3.30
2022-12-08T21:06:08.595Z,4.00
2022-12-08T21:08:37.966Z,3.97
2022-12-08T21:11:06.199Z,3.70
2022-12-08T21:13:33.905Z,4.30
2022-12-08T21:16:01.455Z,4.40
2022-12-08T21:18:31.228Z,4.10
2022-12-08T21:21:04.157Z,4.00
2022-12-08T21:23:31.935Z,3.77
2022-12-08T21:26:00.929Z,4.23
2022-12-08T21:28:28.569Z,3.83
2022-12-08T21:30:56.190Z,3.97
2022-12-08T21:33:23.949Z,4.17
2022-12-08T21:35:52.395Z,4.40
2022-12-08T21:38:20.037Z,3.77
2022-12-08T21:40:47.615Z,3.90
2022-12-08T21:43:16.534Z,4.00
2022-12-08T21:45:44.003Z,3.97
2022-12-08T21:48:12.190Z,4.17
2022-12-08T21:50:40.036Z,3.67
2022-12-08T21:53:07.713Z,3.83
2022-12-08T21:55:35.338Z,4.03
2022-12-08T21:58:02.956Z,3.73
2022-12-08T22:00:32.207Z,3.60
2022-12-08T22:02:59.840Z,3.40
2022-12-08T22:05:27.628Z,3.80
2022-12-08T22:07:55.201Z,3.60
2022-12-08T22:10:23.426Z,3.63
2022-12-08T22:12:51.068Z,3.50
2022-12-08T22:15:18.896Z,3.80
2022-12-08T22:17:47.780Z,3.97
2022-12-08T22:20:16.454Z,4.20
2022-12-08T22:22:45.955Z,3.70
2022-12-08T22:25:13.757Z,3.70
2022-12-08T22:27:41.567Z,3.70
2022-12-08T22:30:10.637Z,3.87
2022-12-08T22:32:39.253Z,3.77
2022-12-08T22:35:08.836Z,4.00
2022-12-08T22:37:36.421Z,3.87
2022-12-08T22:40:04.558Z,3.67
2022-12-08T22:42:32.294Z,3.30
2022-12-08T22:44:59.974Z,3.47
2022-12-08T22:47:27.607Z,3.37
2022-12-08T22:49:55.200Z,3.70
2022-12-08T22:52:24.186Z,3.43
2022-12-08T22:54:51.764Z,3.60
2022-12-08T22:57:19.285Z,3.43
2022-12-08T22:59:46.784Z,3.57
2022-12-08T23:02:14.308Z,3.50
2022-12-08T23:04:42.004Z,4.07
2022-12-08T23:07:10.131Z,3.37
2022-12-08T23:09:39.272Z,3.97
2022-12-08T23:12:07.264Z,3.77
2022-12-08T23:14:34.782Z,3.77
2022-12-08T23:17:02.485Z,3.57
2022-12-08T23:19:30.015Z,3.83
2022-12-08T23:21:57.595Z,3.63
2022-12-08T23:24:25.455Z,3.93
2022-12-08T23:26:54.474Z,4.20
2022-12-08T23:29:22.093Z,3.60
2022-12-08T23:31:49.625Z,4.30
2022-12-08T23:34:17.430Z,3.70
2022-12-08T23:36:44.941Z,3.90
2022-12-08T23:39:12.684Z,3.47
2022-12-08T23:41:40.458Z,3.87
2022-12-08T23:44:11.902Z,3.80
2022-12-08T23:46:39.416Z,3.93
2022-12-08T23:49:07.224Z,3.60
2022-12-08T23:51:34.671Z,4.23
2022-12-08T23:54:02.190Z,3.97
2022-12-08T23:56:30.668Z,4.10
2022-12-08T23:58:58.511Z,4.07
